createdAt,value
2023-07-25T00:01:11.862Z,37.00
2023-07-25T00:03:38.850Z,38.00
2023-07-25T00:06:06.116Z,38.00
2023-07-25T00:08:33.701Z,39.00
2023-07-25T00:11:01.442Z,38.00
2023-07-25T00:13:28.956Z,38.00
2023-07-25T00:15:56.265Z,38.00
2023-07-25T00:18:25.052Z,39.25
2023-07-25T00:20:51.955Z,37.00
2023-07-25T00:23:18.821Z,37.00
2023-07-25T00:25:45.836Z,37.00
2023-07-25T00:28:12.864Z,37.00
2023-07-25T00:30:39.946Z,37.00
2023-07-25T00:33:07.571Z,38.00
2023-07-25T00:35:34.699Z,38.00
2023-07-25T00:38:04.185Z,39.50
2023-07-25T00:40:31.225Z,37.00
2023-07-25T00:42:58.122Z,37.00
2023-07-25T00:45:25.603Z,37.00
2023-07-25T00:47:53.925Z,38.00
2023-07-25T00:50:21.373Z,38.00
2023-07-25T00:52:48.927Z,37.00
2023-07-25T00:55:17.486Z,38.00
2023-07-25T00:57:44.426Z,39.00
2023-07-25T01:00:12.405Z,38.00
2023-07-25T01:02:39.597Z,38.00
2023-07-25T01:05:06.829Z,38.00
2023-07-25T01:07:34.627Z,38.75
2023-07-25T01:10:01.797Z,39.00
2023-07-25T01:12:28.789Z,38.00
2023-07-25T01:14:55.975Z,40.00
2023-07-25T01:17:25.312Z,38.00
2023-07-25T01:19:53.449Z,40.00
2023-07-25T01:22:22.915Z,37.50
2023-07-25T01:24:51.137Z,37.50
2023-07-25T01:27:18.653Z,37.00
2023-07-25T01:29:45.870Z,39.00
2023-07-25T01:32:12.929Z,38.75
2023-07-25T01:34:40.153Z,38.00
2023-07-25T01:37:07.992Z,40.00
2023-07-25T01:39:35.146Z,38.00
2023-07-25T01:42:02.309Z,37.50
2023-07-25T01:44:29.275Z,37.50
2023-07-25T01:46:56.845Z,37.50
2023-07-25T01:49:23.908Z,38.00
2023-07-25T01:51:50.937Z,42.00
2023-07-25T01:54:18.162Z,38.75
2023-07-25T01:56:48.899Z,41.00
2023-07-25T01:59:18.165Z,39.00
2023-07-25T02:01:45.236Z,39.00
2023-07-25T02:04:12.271Z,38.50
2023-07-25T02:06:39.288Z,39.50
2023-07-25T02:09:06.307Z,41.00
2023-07-25T02:11:33.458Z,43.00
2023-07-25T02:14:00.851Z,41.00
2023-07-25T02:16:27.742Z,42.00
2023-07-25T02:18:54.827Z,42.00
2023-07-25T02:21:21.810Z,39.00
2023-07-25T02:23:48.977Z,43.00
2023-07-25T02:26:15.821Z,40.50
2023-07-25T02:28:42.869Z,41.00
2023-07-25T02:31:09.981Z,43.00
2023-07-25T02:33:36.931Z,40.00
2023-07-25T02:36:04.285Z,39.00
2023-07-25T02:38:31.363Z,41.00
2023-07-25T02:40:58.370Z,41.00
2023-07-25T02:43:27.330Z,41.00
2023-07-25T02:45:54.400Z,41.00
2023-07-25T02:48:21.461Z,43.25
2023-07-25T02:50:48.430Z,42.00
2023-07-25T02:53:15.399Z,41.50
2023-07-25T02:55:42.607Z,44.00
2023-07-25T02:58:09.745Z,40.00
2023-07-25T03:00:36.694Z,41.00
2023-07-25T03:03:03.811Z,43.75
2023-07-25T03:05:30.877Z,41.00
2023-07-25T03:07:58.373Z,40.25
2023-07-25T03:10:25.337Z,43.00
2023-07-25T03:12:52.373Z,40.00
2023-07-25T03:15:20.247Z,43.00
2023-07-25T03:17:47.286Z,40.25
2023-07-25T03:20:14.365Z,42.00
2023-07-25T03:22:41.525Z,41.00
2023-07-25T03:25:09.047Z,44.00
2023-07-25T03:27:36.896Z,44.00
2023-07-25T03:30:04.141Z,42.00
2023-07-25T03:32:31.121Z,42.00
2023-07-25T03:34:58.072Z,43.50
2023-07-25T03:37:25.052Z,42.00
2023-07-25T03:39:52.074Z,44.50
2023-07-25T03:42:19.260Z,42.00
2023-07-25T03:44:46.297Z,42.50
2023-07-25T03:47:13.322Z,41.75
2023-07-25T03:49:40.457Z,44.25
2023-07-25T03:52:07.748Z,43.00
2023-07-25T03:54:34.647Z,42.00
2023-07-25T03:57:01.728Z,41.25
2023-07-25T03:59:28.878Z,45.00
2023-07-25T04:01:55.916Z,43.00
2023-07-25T04:04:23.054Z,43.50
2023-07-25T04:06:50.074Z,40.75
2023-07-25T04:09:17.053Z,41.00
2023-07-25T04:11:44.219Z,45.00
2023-07-25T04:14:11.087Z,41.50
2023-07-25T04:16:38.312Z,46.00
2023-07-25T04:19:05.275Z,43.00
2023-07-25T04:21:32.541Z,43.50
2023-07-25T04:23:59.599Z,46.50
2023-07-25T04:26:26.663Z,44.00
2023-07-25T04:28:53.689Z,42.00
2023-07-25T04:31:20.787Z,42.00
2023-07-25T04:33:47.789Z,43.00
2023-07-25T04:36:15.040Z,43.50
2023-07-25T04:38:41.951Z,43.00
2023-07-25T04:41:09.091Z,45.00
2023-07-25T04:43:36.011Z,42.00
2023-07-25T04:46:03.040Z,42.00
2023-07-25T04:48:29.997Z,42.25
2023-07-25T04:50:56.924Z,42.00
2023-07-25T04:53:23.862Z,44.75
2023-07-25T04:55:50.857Z,41.00
2023-07-25T04:58:17.829Z,40.50
2023-07-25T05:00:44.758Z,39.00
2023-07-25T05:03:11.988Z,41.00
2023-07-25T05:05:39.116Z,42.75
2023-07-25T05:08:06.042Z,42.00
2023-07-25T05:10:33.122Z,43.00
2023-07-25T05:12:59.992Z,46.00
2023-07-25T05:15:26.954Z,42.50
2023-07-25T05:17:54.037Z,42.50
2023-07-25T05:20:20.972Z,44.00
2023-07-25T05:22:47.947Z,42.50
2023-07-25T05:25:15.066Z,44.00
2023-07-25T05:27:41.969Z,42.00
2023-07-25T05:30:09.157Z,44.00
2023-07-25T05:32:37.676Z,44.00
2023-07-25T05:35:05.912Z,45.00
2023-07-25T05:37:37.672Z,45.00
2023-07-25T05:40:05.258Z,43.50
2023-07-25T05:42:32.578Z,44.00
2023-07-25T05:45:00.579Z,45.50
2023-07-25T05:47:29.156Z,43.50
2023-07-25T05:49:58.404Z,41.75
2023-07-25T05:52:25.492Z,41.00
2023-07-25T05:54:52.372Z,42.00
2023-07-25T05:57:19.260Z,42.00
2023-07-25T05:59:46.235Z,44.00
2023-07-25T06:02:13.186Z,43.50
2023-07-25T06:04:40.045Z,44.00
2023-07-25T06:07:07.685Z,43.25
2023-07-25T06:09:34.592Z,44.00
2023-07-25T06:12:01.526Z,44.00
2023-07-25T06:14:28.654Z,46.25
2023-07-25T06:16:55.558Z,45.00
2023-07-25T06:19:22.498Z,44.25
2023-07-25T06:21:49.906Z,42.50
2023-07-25T06:24:17.268Z,47.75
2023-07-25T06:26:44.495Z,45.00
2023-07-25T06:29:11.437Z,44.75
2023-07-25T06:31:38.524Z,44.25
2023-07-25T06:34:05.467Z,44.00
2023-07-25T06:36:32.363Z,43.25
2023-07-25T06:38:59.366Z,44.00
2023-07-25T06:41:26.335Z,45.00
2023-07-25T06:43:58.760Z,48.00
2023-07-25T06:46:25.766Z,44.00
2023-07-25T06:48:53.358Z,43.50
2023-07-25T06:51:21.555Z,41.75
2023-07-25T06:53:48.674Z,42.50
2023-07-25T06:56:15.686Z,47.00
2023-07-25T06:58:42.618Z,44.00
2023-07-25T07:01:09.714Z,43.00
2023-07-25T07:03:36.726Z,44.00
2023-07-25T07:06:03.834Z,46.75
2023-07-25T07:08:30.780Z,44.00
2023-07-25T07:10:57.874Z,47.00
2023-07-25T07:13:25.079Z,44.50
2023-07-25T07:15:52.335Z,43.00
2023-07-25T07:18:19.249Z,45.00
2023-07-25T07:20:48.506Z,43.00
2023-07-25T07:23:16.376Z,45.50
2023-07-25T07:25:45.017Z,43.00
2023-07-25T07:28:12.478Z,45.00
2023-07-25T07:30:39.795Z,44.50
2023-07-25T07:33:06.707Z,43.00
2023-07-25T07:35:33.691Z,43.00
2023-07-25T07:38:00.595Z,43.00
2023-07-25T07:40:27.666Z,47.00
2023-07-25T07:42:54.832Z,44.00
2023-07-25T07:45:21.755Z,46.25
2023-07-25T07:47:48.665Z,47.00
2023-07-25T07:50:15.685Z,44.75
2023-07-25T07:52:44.471Z,44.50
2023-07-25T07:55:12.219Z,43.00
2023-07-25T07:57:48.496Z,45.00
2023-07-25T08:00:16.539Z,44.00
2023-07-25T08:02:46.072Z,47.00
2023-07-25T08:05:13.879Z,44.75
2023-07-25T08:07:41.789Z,47.00
2023-07-25T08:10:09.245Z,44.00
2023-07-25T08:12:36.304Z,44.25
2023-07-25T08:15:03.886Z,44.00
2023-07-25T08:17:30.955Z,43.00
2023-07-25T08:19:58.019Z,44.00
2023-07-25T08:22:24.885Z,45.00
2023-07-25T08:24:54.008Z,44.75
2023-07-25T08:27:21.295Z,44.00
2023-07-25T08:29:48.331Z,46.00
2023-07-25T08:32:15.509Z,49.00
2023-07-25T08:34:42.742Z,46.00
2023-07-25T08:37:09.941Z,45.50
2023-07-25T08:39:36.900Z,48.00
2023-07-25T08:42:07.020Z,44.50
2023-07-25T08:44:35.292Z,44.00
2023-07-25T08:47:06.555Z,43.00
2023-07-25T08:49:36.947Z,44.25
2023-07-25T08:52:04.916Z,46.00
2023-07-25T08:54:34.668Z,47.00
2023-07-25T08:57:02.333Z,46.00
2023-07-25T08:59:29.386Z,45.50
2023-07-25T09:01:57.101Z,46.00
2023-07-25T09:04:26.773Z,44.50
2023-07-25T09:06:54.318Z,46.00
2023-07-25T09:09:21.276Z,44.50
2023-07-25T09:11:48.857Z,45.00
2023-07-25T09:14:15.952Z,45.00
2023-07-25T09:16:42.954Z,44.50
2023-07-25T09:19:10.581Z,44.50
2023-07-25T09:21:51.580Z,44.00
2023-07-25T09:24:18.694Z,43.00
2023-07-25T09:26:52.964Z,43.50
2023-07-25T09:29:20.108Z,44.00
2023-07-25T09:31:47.798Z,44.00
2023-07-25T09:34:16.996Z,44.00
2023-07-25T09:36:48.221Z,47.50
2023-07-25T09:39:16.560Z,44.25
2023-07-25T09:41:43.906Z,48.00
2023-07-25T09:44:10.968Z,44.00
2023-07-25T09:46:38.287Z,46.50
2023-07-25T09:49:05.623Z,44.00
2023-07-25T09:51:32.848Z,46.50
2023-07-25T09:53:59.857Z,45.00
2023-07-25T09:56:27.666Z,45.00
2023-07-25T10:01:25.559Z,45.00
2023-07-25T10:03:53.747Z,48.75
2023-07-25T10:06:21.967Z,45.50
2023-07-25T10:08:49.029Z,45.75
2023-07-25T10:11:17.284Z,45.00
2023-07-25T10:13:45.225Z,49.50
2023-07-25T10:16:12.878Z,45.50
2023-07-25T10:18:39.858Z,47.00
2023-07-25T10:21:09.438Z,51.00
2023-07-25T10:23:36.855Z,45.00
2023-07-25T10:26:14.586Z,48.00
2023-07-25T10:28:41.951Z,46.00
2023-07-25T10:31:21.217Z,45.50
2023-07-25T10:33:54.073Z,45.75
2023-07-25T10:36:24.734Z,50.00
2023-07-25T10:38:52.429Z,46.00
2023-07-25T10:41:19.740Z,50.00
2023-07-25T10:43:46.583Z,47.00
2023-07-25T10:46:35.043Z,46.00
2023-07-25T10:49:04.036Z,49.00
2023-07-25T10:52:06.752Z,46.00
2023-07-25T10:54:33.876Z,49.00
2023-07-25T10:57:19.100Z,46.00
2023-07-25T10:59:58.090Z,46.00
2023-07-25T11:02:41.275Z,46.00
2023-07-25T11:05:14.640Z,46.50
2023-07-25T11:07:50.562Z,50.00
2023-07-25T11:10:21.578Z,45.00
2023-07-25T11:12:54.504Z,45.00
2023-07-25T11:15:40.273Z,47.00
2023-07-25T11:18:09.083Z,47.50
2023-07-25T11:20:36.152Z,52.00
2023-07-25T11:23:03.160Z,47.00
2023-07-25T11:25:30.222Z,47.00
2023-07-25T11:27:57.195Z,49.00
2023-07-25T11:30:24.092Z,47.00
2023-07-25T11:32:53.268Z,48.00
2023-07-25T11:35:21.118Z,52.00
2023-07-25T11:37:49.928Z,47.00
2023-07-25T11:40:19.617Z,47.50
2023-07-25T11:42:48.609Z,47.00
2023-07-25T11:45:16.979Z,47.00
2023-07-25T11:47:48.255Z,49.75
2023-07-25T11:50:25.834Z,46.25
2023-07-25T11:52:56.431Z,46.00
2023-07-25T11:55:23.758Z,49.00
2023-07-25T11:57:50.868Z,45.00
2023-07-25T12:00:18.078Z,46.50
2023-07-25T12:02:45.469Z,47.00
2023-07-25T12:05:32.368Z,48.00
2023-07-25T12:07:59.947Z,46.50
2023-07-25T12:10:28.490Z,50.50
2023-07-25T12:12:56.437Z,47.00
2023-07-25T12:15:25.021Z,47.00
2023-07-25T12:17:52.102Z,50.00
2023-07-25T12:20:20.661Z,46.50
2023-07-25T12:22:48.272Z,45.50
2023-07-25T12:25:19.372Z,45.50
2023-07-25T12:27:50.128Z,45.00
2023-07-25T12:30:17.647Z,50.00
2023-07-25T12:32:44.837Z,47.00
2023-07-25T12:35:11.910Z,45.00
2023-07-25T12:37:39.099Z,44.50
2023-07-25T12:40:06.819Z,47.75
2023-07-25T12:42:33.801Z,47.00
2023-07-25T12:45:00.724Z,47.00
2023-07-25T12:47:27.671Z,47.00
2023-07-25T12:49:54.709Z,49.75
2023-07-25T12:52:21.581Z,47.00
2023-07-25T12:54:48.445Z,50.00
2023-07-25T12:57:15.396Z,46.25
2023-07-25T12:59:42.243Z,48.00
2023-07-25T13:02:09.334Z,45.50
2023-07-25T13:04:36.384Z,44.00
2023-07-25T13:07:03.433Z,45.00
2023-07-25T13:09:30.300Z,46.00
2023-07-25T13:11:57.260Z,46.00
2023-07-25T13:14:24.395Z,46.50
2023-07-25T13:16:51.375Z,46.00
2023-07-25T13:19:18.250Z,50.00
2023-07-25T13:21:47.324Z,46.00
2023-07-25T13:24:14.492Z,46.25
2023-07-25T13:26:41.517Z,46.00
2023-07-25T13:29:08.383Z,46.00
2023-07-25T13:31:35.226Z,46.50
2023-07-25T13:34:02.372Z,45.00
2023-07-25T13:36:29.249Z,46.50
2023-07-25T13:38:56.150Z,47.25
2023-07-25T13:41:23.058Z,50.00
2023-07-25T13:43:49.915Z,45.75
2023-07-25T13:46:16.980Z,49.00
2023-07-25T13:48:44.008Z,45.25
2023-07-25T13:51:10.966Z,46.75
2023-07-25T13:53:37.826Z,50.00
2023-07-25T13:56:05.363Z,46.50
2023-07-25T13:58:32.359Z,50.00
2023-07-25T14:00:59.333Z,45.00
2023-07-25T14:03:27.614Z,44.00
2023-07-25T14:05:55.861Z,44.00
2023-07-25T14:08:22.941Z,45.25
2023-07-25T14:10:49.991Z,50.00
2023-07-25T14:13:16.918Z,47.00
2023-07-25T14:15:43.921Z,46.00
2023-07-25T14:18:10.904Z,44.00
2023-07-25T14:20:37.841Z,47.00
2023-07-25T14:23:04.728Z,44.50
2023-07-25T14:25:31.650Z,48.00
2023-07-25T14:27:58.581Z,46.00
2023-07-25T14:30:25.641Z,45.00
2023-07-25T14:32:52.520Z,48.25
2023-07-25T14:35:19.497Z,46.50
2023-07-25T14:37:55.997Z,47.75
2023-07-25T14:40:24.680Z,47.00
2023-07-25T14:42:51.952Z,46.75
2023-07-25T14:45:19.236Z,46.00
2023-07-25T14:47:46.317Z,49.75
2023-07-25T14:50:13.691Z,47.00
2023-07-25T14:52:40.635Z,50.50
2023-07-25T14:55:07.952Z,45.00
2023-07-25T14:57:34.824Z,46.00
2023-07-25T15:00:01.838Z,46.00
2023-07-25T15:02:28.962Z,46.50
2023-07-25T15:04:56.010Z,45.00
2023-07-25T15:07:22.940Z,48.25
2023-07-25T15:09:50.220Z,45.00
2023-07-25T15:12:17.271Z,46.00
2023-07-25T15:14:44.217Z,46.00
2023-07-25T15:17:22.586Z,47.00
2023-07-25T15:20:01.693Z,48.00
2023-07-25T15:22:29.044Z,45.00
2023-07-25T15:24:56.575Z,45.00
2023-07-25T15:27:24.217Z,49.25
2023-07-25T15:29:51.597Z,46.75
2023-07-25T15:32:18.656Z,46.00
2023-07-25T15:34:45.652Z,50.00
2023-07-25T15:37:13.036Z,50.00
2023-07-25T15:39:39.985Z,46.00
2023-07-25T15:42:07.791Z,46.00
2023-07-25T15:44:34.755Z,45.50
2023-07-25T15:47:02.327Z,46.00
2023-07-25T15:49:29.597Z,46.50
2023-07-25T15:51:57.429Z,49.00
2023-07-25T15:54:24.351Z,46.00
2023-07-25T15:56:51.341Z,47.00
2023-07-25T15:59:18.283Z,44.50
2023-07-25T16:01:45.606Z,47.00
2023-07-25T16:04:12.558Z,48.00
2023-07-25T16:06:39.562Z,47.00
2023-07-25T16:09:06.444Z,47.00
2023-07-25T16:11:34.092Z,46.00
2023-07-25T16:14:01.476Z,44.50
2023-07-25T16:16:28.494Z,46.50
2023-07-25T16:18:55.377Z,46.00
2023-07-25T16:21:22.375Z,45.75
2023-07-25T16:23:49.401Z,47.00
2023-07-25T16:26:17.090Z,47.00
2023-07-25T16:28:44.120Z,48.25
2023-07-25T16:31:29.041Z,46.00
2023-07-25T16:33:58.176Z,48.25
2023-07-25T16:36:25.283Z,45.00
2023-07-25T16:38:53.703Z,48.00
2023-07-25T16:41:20.675Z,44.00
2023-07-25T16:43:47.741Z,44.50
2023-07-25T16:46:15.358Z,48.25
2023-07-25T16:48:42.474Z,44.00
2023-07-25T16:51:09.402Z,44.00
2023-07-25T16:53:36.487Z,43.50
2023-07-25T16:56:03.587Z,44.25
2023-07-25T16:58:30.537Z,49.00
2023-07-25T17:00:57.492Z,46.00
2023-07-25T17:03:25.203Z,44.50
2023-07-25T17:05:52.203Z,48.00
2023-07-25T17:08:20.407Z,45.00
2023-07-25T17:10:47.973Z,44.50
2023-07-25T17:13:15.150Z,44.00
2023-07-25T17:15:42.883Z,43.00
2023-07-25T17:18:10.102Z,44.00
2023-07-25T17:20:36.978Z,44.00
2023-07-25T17:23:04.458Z,47.75
2023-07-25T17:25:31.542Z,45.00
2023-07-25T17:27:58.557Z,43.25
2023-07-25T17:30:25.499Z,43.50
2023-07-25T17:32:52.597Z,46.00
2023-07-25T17:35:31.634Z,46.00
2023-07-25T17:38:03.233Z,49.00
2023-07-25T17:40:30.699Z,44.50
2023-07-25T17:42:57.829Z,48.00
2023-07-25T17:45:24.808Z,46.00
2023-07-25T17:47:51.862Z,46.50
2023-07-25T17:50:18.889Z,51.00
2023-07-25T17:52:45.789Z,46.75
2023-07-25T17:55:12.690Z,48.75
2023-07-25T17:57:39.671Z,45.00
2023-07-25T18:00:07.305Z,44.50
2023-07-25T18:02:39.420Z,49.00
2023-07-25T18:05:06.831Z,44.00
2023-07-25T18:07:33.842Z,44.25
2023-07-25T18:10:00.851Z,44.00
2023-07-25T18:12:27.797Z,43.00
2023-07-25T18:14:54.925Z,43.00
2023-07-25T18:17:22.458Z,44.00
2023-07-25T18:19:49.522Z,44.25
2023-07-25T18:22:16.645Z,45.00
2023-07-25T18:24:43.681Z,45.00
2023-07-25T18:27:10.705Z,45.00
2023-07-25T18:29:37.759Z,49.00
2023-07-25T18:32:05.177Z,46.00
2023-07-25T18:34:32.378Z,46.00
2023-07-25T18:36:59.313Z,44.50
2023-07-25T18:39:26.352Z,43.50
2023-07-25T18:41:53.311Z,47.25
2023-07-25T18:44:20.357Z,43.50
2023-07-25T18:46:47.365Z,44.00
2023-07-25T18:49:14.407Z,43.00
2023-07-25T18:51:41.420Z,43.75
2023-07-25T18:54:08.780Z,47.00
2023-07-25T18:56:35.790Z,44.25
2023-07-25T18:59:02.780Z,46.50
2023-07-25T19:01:29.788Z,43.00
2023-07-25T19:03:58.629Z,43.50
2023-07-25T19:06:25.952Z,43.50
2023-07-25T19:08:53.975Z,44.00
2023-07-25T19:11:20.924Z,43.50
2023-07-25T19:13:47.888Z,47.75
2023-07-25T19:16:14.802Z,44.50
2023-07-25T19:18:41.861Z,43.00
2023-07-25T19:21:08.795Z,47.00
2023-07-25T19:23:35.844Z,46.00
2023-07-25T19:26:02.933Z,45.00
2023-07-25T19:28:30.031Z,44.75
2023-07-25T19:30:58.653Z,48.25
2023-07-25T19:33:26.671Z,44.50
2023-07-25T19:35:59.117Z,43.00
2023-07-25T19:38:28.447Z,45.00
2023-07-25T19:40:55.730Z,45.00
2023-07-25T19:43:22.812Z,44.00
2023-07-25T19:45:50.405Z,46.00
2023-07-25T19:48:20.171Z,43.00
2023-07-25T19:50:47.298Z,43.00
2023-07-25T19:53:15.637Z,47.00
2023-07-25T19:55:42.641Z,43.25
2023-07-25T19:58:09.754Z,42.00
2023-07-25T20:00:37.117Z,42.50
2023-07-25T20:03:04.395Z,44.50
2023-07-25T20:05:31.467Z,46.00
2023-07-25T20:07:58.423Z,42.00
2023-07-25T20:10:25.462Z,42.25
2023-07-25T20:12:52.948Z,42.00
2023-07-25T20:15:20.483Z,44.50
2023-07-25T20:17:48.997Z,42.75
2023-07-25T20:20:16.251Z,42.50
2023-07-25T20:22:43.547Z,42.00
2023-07-25T20:25:10.641Z,44.00
2023-07-25T20:27:38.007Z,44.25
2023-07-25T20:30:06.477Z,46.00
2023-07-25T20:32:33.753Z,43.75
2023-07-25T20:35:01.062Z,45.75
2023-07-25T20:37:28.250Z,43.25
2023-07-25T20:39:55.174Z,47.50
2023-07-25T20:42:22.586Z,44.50
2023-07-25T20:44:50.533Z,44.00
2023-07-25T20:47:17.475Z,43.00
2023-07-25T20:49:44.408Z,47.00
2023-07-25T20:52:11.493Z,45.00
2023-07-25T20:54:38.420Z,44.50
2023-07-25T20:57:05.702Z,44.50
2023-07-25T20:59:32.583Z,46.50
2023-07-25T21:01:59.514Z,45.00
2023-07-25T21:04:28.723Z,43.50
2023-07-25T21:06:56.301Z,43.50
2023-07-25T21:09:23.208Z,44.00
2023-07-25T21:11:50.150Z,43.25
2023-07-25T21:14:17.045Z,48.00
2023-07-25T21:16:44.012Z,45.50
2023-07-25T21:19:10.951Z,44.00
2023-07-25T21:21:37.913Z,46.00
2023-07-25T21:24:05.426Z,42.50
2023-07-25T21:26:32.631Z,43.00
2023-07-25T21:28:59.896Z,44.50
2023-07-25T21:31:26.944Z,48.00
2023-07-25T21:33:54.041Z,44.00
2023-07-25T21:36:21.062Z,42.25
2023-07-25T21:38:47.950Z,42.00
2023-07-25T21:41:14.918Z,45.75
2023-07-25T21:43:42.265Z,44.00
2023-07-25T21:46:09.618Z,47.00
2023-07-25T21:48:36.573Z,44.00
2023-07-25T21:51:03.669Z,44.00
2023-07-25T21:53:31.295Z,44.50
2023-07-25T21:55:59.240Z,46.00
2023-07-25T21:58:28.222Z,44.50
2023-07-25T22:00:59.377Z,43.00
2023-07-25T22:03:27.461Z,43.50
2023-07-25T22:05:55.168Z,44.50
2023-07-25T22:08:22.184Z,47.00
2023-07-25T22:10:49.179Z,47.00
2023-07-25T22:13:16.327Z,44.00
2023-07-25T22:15:43.438Z,43.00
2023-07-25T22:18:10.576Z,42.00
2023-07-25T22:20:50.624Z,47.00
2023-07-25T22:23:19.102Z,43.50
2023-07-25T22:25:46.019Z,45.50
2023-07-25T22:28:13.086Z,43.00
2023-07-25T22:30:40.070Z,46.50
2023-07-25T22:33:07.166Z,44.00
2023-07-25T22:35:35.029Z,45.00
2023-07-25T22:38:03.698Z,43.75
2023-07-25T22:40:30.894Z,47.00
2023-07-25T22:42:58.089Z,43.75
2023-07-25T22:45:26.825Z,45.00
2023-07-25T22:47:54.504Z,44.00
2023-07-25T22:50:21.548Z,45.00
2023-07-25T22:52:48.815Z,47.00
2023-07-25T22:55:17.925Z,43.00
2023-07-25T22:57:45.438Z,42.00
2023-07-25T23:00:12.867Z,45.75
2023-07-25T23:02:40.080Z,44.50
2023-07-25T23:05:07.566Z,43.00
2023-07-25T23:07:35.352Z,46.00
2023-07-25T23:10:02.820Z,44.00
2023-07-25T23:12:30.199Z,46.75
2023-07-25T23:14:57.307Z,44.00
2023-07-25T23:17:24.532Z,45.50
2023-07-25T23:19:51.649Z,43.00
2023-07-25T23:22:18.670Z,42.00
2023-07-25T23:24:45.745Z,43.00
2023-07-25T23:27:12.682Z,46.75
2023-07-25T23:29:39.586Z,47.50
2023-07-25T23:32:07.277Z,43.50
2023-07-25T23:34:48.489Z,46.00
2023-07-25T23:37:16.543Z,47.00
2023-07-25T23:39:43.877Z,44.00
2023-07-25T23:42:10.878Z,47.00
2023-07-25T23:44:37.896Z,44.00
2023-07-25T23:47:05.343Z,47.00
2023-07-25T23:49:34.477Z,43.00
2023-07-25T23:52:01.747Z,42.00
2023-07-25T23:54:28.724Z,43.00
2023-07-25T23:56:55.702Z,44.00
2023-07-25T23:59:22.649Z,43.00
